sensor_id;sensor_type;location;lat;lon;timestamp;P1;durP1;ratioP1;P2;durP2;ratioP2
15667;SDS011;7934;48.710;9.024;2022-12-29T00:00:02;1.70;;;1.60;;
15667;SDS011;7934;48.710;9.024;2022-12-29T00:02:31;3.00;;;1.75;;
15667;SDS011;7934;48.710;9.024;2022-12-29T00:04:59;1.90;;;1.80;;
15667;SDS011;7934;48.710;9.024;2022-12-29T00:07:26;3.75;;;1.50;;
15667;SDS011;7934;48.710;9.024;2022-12-29T00:09:53;3.00;;;2.00;;
15667;SDS011;7934;48.710;9.024;2022-12-29T00:12:20;1.85;;;1.70;;
15667;SDS011;7934;48.710;9.024;2022-12-29T00:14:47;1.90;;;1.70;;
15667;SDS011;7934;48.710;9.024;2022-12-29T00:17:48;2.42;;;1.73;;
15667;SDS011;7934;48.710;9.024;2022-12-29T00:20:15;3.90;;;1.70;;
15667;SDS011;7934;48.710;9.024;2022-12-29T00:23:00;3.00;;;1.70;;
15667;SDS011;7934;48.710;9.024;2022-12-29T00:25:45;1.73;;;1.63;;
15667;SDS011;7934;48.710;9.024;2022-12-29T00:28:30;2.10;;;1.90;;
15667;SDS011;7934;48.710;9.024;2022-12-29T00:31:14;1.95;;;1.73;;
15667;SDS011;7934;48.710;9.024;2022-12-29T00:34:01;1.90;;;1.70;;
15667;SDS011;7934;48.710;9.024;2022-12-29T00:36:45;2.10;;;1.60;;
15667;SDS011;7934;48.710;9.024;2022-12-29T00:39:13;3.70;;;1.63;;
15667;SDS011;7934;48.710;9.024;2022-12-29T00:42:02;1.80;;;1.70;;
15667;SDS011;7934;48.710;9.024;2022-12-29T00:44:47;1.65;;;1.55;;
15667;SDS011;7934;48.710;9.024;2022-12-29T00:47:14;2.90;;;1.70;;
15667;SDS011;7934;48.710;9.024;2022-12-29T00:49:43;1.90;;;1.70;;
15667;SDS011;7934;48.710;9.024;2022-12-29T00:52:10;1.75;;;1.65;;
15667;SDS011;7934;48.710;9.024;2022-12-29T00:54:38;2.08;;;1.40;;
15667;SDS011;7934;48.710;9.024;2022-12-29T00:57:07;3.03;;;1.63;;
15667;SDS011;7934;48.710;9.024;2022-12-29T00:59:34;1.98;;;1.58;;
15667;SDS011;7934;48.710;9.024;2022-12-29T01:02:01;1.60;;;1.50;;
15667;SDS011;7934;48.710;9.024;2022-12-29T01:04:29;2.38;;;1.50;;
15667;SDS011;7934;48.710;9.024;2022-12-29T01:06:57;1.80;;;1.50;;
15667;SDS011;7934;48.710;9.024;2022-12-29T01:09:24;2.33;;;1.40;;
15667;SDS011;7934;48.710;9.024;2022-12-29T01:12:10;1.67;;;1.50;;
15667;SDS011;7934;48.710;9.024;2022-12-29T01:14:37;1.98;;;1.60;;
15667;SDS011;7934;48.710;9.024;2022-12-29T01:17:05;3.45;;;1.30;;
15667;SDS011;7934;48.710;9.024;2022-12-29T01:19:32;1.40;;;1.30;;
15667;SDS011;7934;48.710;9.024;2022-12-29T01:22:01;1.65;;;1.40;;
15667;SDS011;7934;48.710;9.024;2022-12-29T01:24:28;1.65;;;1.50;;
15667;SDS011;7934;48.710;9.024;2022-12-29T01:26:55;1.45;;;1.35;;
15667;SDS011;7934;48.710;9.024;2022-12-29T01:29:23;2.15;;;1.30;;
15667;SDS011;7934;48.710;9.024;2022-12-29T01:31:50;1.35;;;1.25;;
15667;SDS011;7934;48.710;9.024;2022-12-29T01:34:17;2.90;;;1.40;;
15667;SDS011;7934;48.710;9.024;2022-12-29T01:36:44;1.52;;;1.23;;
15667;SDS011;7934;48.710;9.024;2022-12-29T01:39:13;1.70;;;1.30;;
15667;SDS011;7934;48.710;9.024;2022-12-29T01:41:40;2.42;;;1.20;;
15667;SDS011;7934;48.710;9.024;2022-12-29T01:46:56;3.22;;;1.50;;
15667;SDS011;7934;48.710;9.024;2022-12-29T01:49:24;3.75;;;1.35;;
15667;SDS011;7934;48.710;9.024;2022-12-29T01:51:55;1.67;;;1.33;;
15667;SDS011;7934;48.710;9.024;2022-12-29T01:54:24;2.58;;;1.38;;
15667;SDS011;7934;48.710;9.024;2022-12-29T01:56:52;1.75;;;1.33;;
15667;SDS011;7934;48.710;9.024;2022-12-29T01:59:21;2.38;;;1.50;;
15667;SDS011;7934;48.710;9.024;2022-12-29T02:01:49;2.30;;;1.63;;
15667;SDS011;7934;48.710;9.024;2022-12-29T02:04:17;2.13;;;1.38;;
15667;SDS011;7934;48.710;9.024;2022-12-29T02:06:45;3.42;;;1.70;;
15667;SDS011;7934;48.710;9.024;2022-12-29T02:09:13;2.78;;;1.35;;
15667;SDS011;7934;48.710;9.024;2022-12-29T02:11:41;2.33;;;1.43;;
15667;SDS011;7934;48.710;9.024;2022-12-29T02:14:12;2.30;;;1.40;;
15667;SDS011;7934;48.710;9.024;2022-12-29T02:16:44;1.50;;;1.40;;
15667;SDS011;7934;48.710;9.024;2022-12-29T02:22:01;4.82;;;1.50;;
15667;SDS011;7934;48.710;9.024;2022-12-29T02:24:37;1.83;;;1.48;;
15667;SDS011;7934;48.710;9.024;2022-12-29T02:32:48;1.80;;;1.40;;
15667;SDS011;7934;48.710;9.024;2022-12-29T02:35:20;1.75;;;1.40;;
15667;SDS011;7934;48.710;9.024;2022-12-29T02:37:52;2.88;;;1.15;;
15667;SDS011;7934;48.710;9.024;2022-12-29T02:40:23;3.87;;;1.40;;
15667;SDS011;7934;48.710;9.024;2022-12-29T02:42:55;1.83;;;1.20;;
15667;SDS011;7934;48.710;9.024;2022-12-29T02:45:27;2.10;;;1.30;;
15667;SDS011;7934;48.710;9.024;2022-12-29T02:47:59;2.42;;;1.15;;
15667;SDS011;7934;48.710;9.024;2022-12-29T02:50:29;2.65;;;1.38;;
15667;SDS011;7934;48.710;9.024;2022-12-29T02:52:58;2.25;;;1.40;;
15667;SDS011;7934;48.710;9.024;2022-12-29T02:55:26;2.45;;;1.40;;
15667;SDS011;7934;48.710;9.024;2022-12-29T03:00:34;1.33;;;1.20;;
15667;SDS011;7934;48.710;9.024;2022-12-29T03:08:41;2.17;;;1.50;;
15667;SDS011;7934;48.710;9.024;2022-12-29T03:11:11;1.50;;;1.20;;
15667;SDS011;7934;48.710;9.024;2022-12-29T03:13:55;1.55;;;1.45;;
15667;SDS011;7934;48.710;9.024;2022-12-29T03:16:42;2.65;;;1.50;;
15667;SDS011;7934;48.710;9.024;2022-12-29T03:19:13;2.85;;;1.30;;
15667;SDS011;7934;48.710;9.024;2022-12-29T03:21:43;2.13;;;1.30;;
15667;SDS011;7934;48.710;9.024;2022-12-29T03:24:31;3.58;;;1.40;;
15667;SDS011;7934;48.710;9.024;2022-12-29T03:27:00;1.55;;;1.20;;
15667;SDS011;7934;48.710;9.024;2022-12-29T03:29:28;2.00;;;1.30;;
15667;SDS011;7934;48.710;9.024;2022-12-29T03:31:56;2.60;;;1.42;;
15667;SDS011;7934;48.710;9.024;2022-12-29T03:34:24;1.80;;;1.40;;
15667;SDS011;7934;48.710;9.024;2022-12-29T03:36:53;2.30;;;1.10;;
15667;SDS011;7934;48.710;9.024;2022-12-29T03:39:21;1.88;;;1.20;;
15667;SDS011;7934;48.710;9.024;2022-12-29T03:41:53;1.50;;;1.40;;
15667;SDS011;7934;48.710;9.024;2022-12-29T03:44:30;2.53;;;1.25;;
15667;SDS011;7934;48.710;9.024;2022-12-29T03:46:57;2.25;;;1.40;;
15667;SDS011;7934;48.710;9.024;2022-12-29T03:49:25;2.03;;;1.38;;
15667;SDS011;7934;48.710;9.024;2022-12-29T03:51:52;2.78;;;1.30;;
15667;SDS011;7934;48.710;9.024;2022-12-29T03:54:19;2.10;;;1.40;;
15667;SDS011;7934;48.710;9.024;2022-12-29T03:56:46;3.05;;;1.48;;
15667;SDS011;7934;48.710;9.024;2022-12-29T03:59:15;4.25;;;1.40;;
15667;SDS011;7934;48.710;9.024;2022-12-29T04:01:42;2.05;;;1.33;;
15667;SDS011;7934;48.710;9.024;2022-12-29T04:04:09;3.20;;;1.48;;
15667;SDS011;7934;48.710;9.024;2022-12-29T04:06:37;2.00;;;1.37;;
15667;SDS011;7934;48.710;9.024;2022-12-29T04:09:04;1.45;;;1.30;;
15667;SDS011;7934;48.710;9.024;2022-12-29T04:11:31;2.15;;;1.30;;
15667;SDS011;7934;48.710;9.024;2022-12-29T04:13:58;2.67;;;1.40;;
15667;SDS011;7934;48.710;9.024;2022-12-29T04:16:27;1.95;;;1.48;;
15667;SDS011;7934;48.710;9.024;2022-12-29T04:18:54;2.80;;;1.55;;
15667;SDS011;7934;48.710;9.024;2022-12-29T04:21:21;3.40;;;1.43;;
15667;SDS011;7934;48.710;9.024;2022-12-29T04:23:49;1.90;;;1.30;;
15667;SDS011;7934;48.710;9.024;2022-12-29T04:26:16;3.05;;;1.30;;
15667;SDS011;7934;48.710;9.024;2022-12-29T04:28:43;2.87;;;1.53;;
15667;SDS011;7934;48.710;9.024;2022-12-29T04:31:10;1.55;;;1.40;;
15667;SDS011;7934;48.710;9.024;2022-12-29T04:33:39;1.42;;;1.30;;
15667;SDS011;7934;48.710;9.024;2022-12-29T04:36:06;1.50;;;1.40;;
15667;SDS011;7934;48.710;9.024;2022-12-29T04:38:33;1.67;;;1.40;;
15667;SDS011;7934;48.710;9.024;2022-12-29T04:41:01;3.63;;;1.55;;
15667;SDS011;7934;48.710;9.024;2022-12-29T04:43:28;1.88;;;1.45;;
15667;SDS011;7934;48.710;9.024;2022-12-29T04:45:55;4.18;;;1.52;;
15667;SDS011;7934;48.710;9.024;2022-12-29T04:48:23;2.22;;;1.55;;
15667;SDS011;7934;48.710;9.024;2022-12-29T04:50:52;2.05;;;1.42;;
15667;SDS011;7934;48.710;9.024;2022-12-29T04:53:21;4.72;;;2.25;;
15667;SDS011;7934;48.710;9.024;2022-12-29T04:55:49;1.80;;;1.60;;
15667;SDS011;7934;48.710;9.024;2022-12-29T04:58:16;1.70;;;1.60;;
15667;SDS011;7934;48.710;9.024;2022-12-29T05:00:46;1.70;;;1.60;;
15667;SDS011;7934;48.710;9.024;2022-12-29T05:03:13;2.50;;;2.17;;
15667;SDS011;7934;48.710;9.024;2022-12-29T05:05:40;1.80;;;1.70;;
15667;SDS011;7934;48.710;9.024;2022-12-29T05:08:16;2.70;;;1.70;;
15667;SDS011;7934;48.710;9.024;2022-12-29T05:10:44;1.60;;;1.50;;
15667;SDS011;7934;48.710;9.024;2022-12-29T05:13:11;1.75;;;1.63;;
15667;SDS011;7934;48.710;9.024;2022-12-29T05:15:39;4.05;;;1.80;;
15667;SDS011;7934;48.710;9.024;2022-12-29T05:18:09;1.98;;;1.80;;
15667;SDS011;7934;48.710;9.024;2022-12-29T05:20:36;2.50;;;1.98;;
15667;SDS011;7934;48.710;9.024;2022-12-29T05:23:03;1.70;;;1.60;;
15667;SDS011;7934;48.710;9.024;2022-12-29T05:25:32;2.45;;;1.77;;
15667;SDS011;7934;48.710;9.024;2022-12-29T05:27:59;2.08;;;1.88;;
15667;SDS011;7934;48.710;9.024;2022-12-29T05:30:26;1.80;;;1.70;;
15667;SDS011;7934;48.710;9.024;2022-12-29T05:32:54;3.45;;;1.80;;
15667;SDS011;7934;48.710;9.024;2022-12-29T05:35:21;3.53;;;1.70;;
15667;SDS011;7934;48.710;9.024;2022-12-29T05:37:48;2.47;;;1.70;;
15667;SDS011;7934;48.710;9.024;2022-12-29T05:40:15;4.32;;;1.80;;
15667;SDS011;7934;48.710;9.024;2022-12-29T05:42:44;1.92;;;1.60;;
15667;SDS011;7934;48.710;9.024;2022-12-29T05:45:11;2.17;;;1.63;;
15667;SDS011;7934;48.710;9.024;2022-12-29T05:47:38;1.55;;;1.45;;
15667;SDS011;7934;48.710;9.024;2022-12-29T05:50:06;1.50;;;1.40;;
15667;SDS011;7934;48.710;9.024;2022-12-29T05:52:33;1.52;;;1.40;;
15667;SDS011;7934;48.710;9.024;2022-12-29T05:55:00;4.32;;;1.67;;
15667;SDS011;7934;48.710;9.024;2022-12-29T05:57:27;1.70;;;1.42;;
15667;SDS011;7934;48.710;9.024;2022-12-29T05:59:56;2.47;;;1.60;;
15667;SDS011;7934;48.710;9.024;2022-12-29T06:02:23;2.10;;;1.77;;
15667;SDS011;7934;48.710;9.024;2022-12-29T06:04:50;1.52;;;1.42;;
15667;SDS011;7934;48.710;9.024;2022-12-29T06:07:18;1.70;;;1.60;;
15667;SDS011;7934;48.710;9.024;2022-12-29T06:09:45;2.53;;;1.60;;
15667;SDS011;7934;48.710;9.024;2022-12-29T06:12:12;1.80;;;1.65;;
15667;SDS011;7934;48.710;9.024;2022-12-29T06:14:39;2.80;;;1.60;;
15667;SDS011;7934;48.710;9.024;2022-12-29T06:17:08;2.05;;;1.75;;
15667;SDS011;7934;48.710;9.024;2022-12-29T06:19:35;2.60;;;1.70;;
15667;SDS011;7934;48.710;9.024;2022-12-29T06:22:02;2.67;;;1.67;;
15667;SDS011;7934;48.710;9.024;2022-12-29T06:24:29;4.60;;;1.60;;
15667;SDS011;7934;48.710;9.024;2022-12-29T06:26:57;2.90;;;1.70;;
15667;SDS011;7934;48.710;9.024;2022-12-29T06:29:24;2.10;;;1.65;;
15667;SDS011;7934;48.710;9.024;2022-12-29T06:31:51;2.40;;;1.85;;
15667;SDS011;7934;48.710;9.024;2022-12-29T06:34:22;1.85;;;1.75;;
15667;SDS011;7934;48.710;9.024;2022-12-29T06:36:49;2.67;;;1.52;;
15667;SDS011;7934;48.710;9.024;2022-12-29T06:39:17;1.80;;;1.70;;
15667;SDS011;7934;48.710;9.024;2022-12-29T06:41:44;4.43;;;1.65;;
15667;SDS011;7934;48.710;9.024;2022-12-29T06:44:11;1.50;;;1.40;;
15667;SDS011;7934;48.710;9.024;2022-12-29T06:46:38;2.03;;;1.58;;
15667;SDS011;7934;48.710;9.024;2022-12-29T06:49:05;1.75;;;1.50;;
15667;SDS011;7934;48.710;9.024;2022-12-29T06:51:34;2.13;;;1.35;;
15667;SDS011;7934;48.710;9.024;2022-12-29T06:54:01;2.70;;;1.48;;
15667;SDS011;7934;48.710;9.024;2022-12-29T06:56:28;1.40;;;1.40;;
15667;SDS011;7934;48.710;9.024;2022-12-29T06:58:55;2.88;;;1.65;;
15667;SDS011;7934;48.710;9.024;2022-12-29T07:01:25;2.77;;;1.50;;
15667;SDS011;7934;48.710;9.024;2022-12-29T07:03:52;2.47;;;1.35;;
15667;SDS011;7934;48.710;9.024;2022-12-29T07:06:19;2.88;;;1.60;;
15667;SDS011;7934;48.710;9.024;2022-12-29T07:08:48;2.38;;;1.70;;
15667;SDS011;7934;48.710;9.024;2022-12-29T07:11:15;1.75;;;1.65;;
15667;SDS011;7934;48.710;9.024;2022-12-29T07:13:44;2.75;;;1.50;;
15667;SDS011;7934;48.710;9.024;2022-12-29T07:16:11;1.85;;;1.50;;
15667;SDS011;7934;48.710;9.024;2022-12-29T07:18:39;2.35;;;1.58;;
15667;SDS011;7934;48.710;9.024;2022-12-29T07:21:06;2.95;;;1.70;;
15667;SDS011;7934;48.710;9.024;2022-12-29T07:23:33;1.40;;;1.30;;
15667;SDS011;7934;48.710;9.024;2022-12-29T07:26:05;2.10;;;1.70;;
15667;SDS011;7934;48.710;9.024;2022-12-29T07:28:33;1.55;;;1.45;;
15667;SDS011;7934;48.710;9.024;2022-12-29T07:31:01;3.13;;;1.80;;
15667;SDS011;7934;48.710;9.024;2022-12-29T07:33:28;1.73;;;1.50;;
15667;SDS011;7934;48.710;9.024;2022-12-29T07:35:56;1.90;;;1.57;;
15667;SDS011;7934;48.710;9.024;2022-12-29T07:38:23;2.30;;;1.55;;
15667;SDS011;7934;48.710;9.024;2022-12-29T07:40:50;2.05;;;1.40;;
15667;SDS011;7934;48.710;9.024;2022-12-29T07:43:19;2.53;;;1.60;;
15667;SDS011;7934;48.710;9.024;2022-12-29T07:45:49;2.65;;;1.42;;
15667;SDS011;7934;48.710;9.024;2022-12-29T07:48:16;1.98;;;1.67;;
15667;SDS011;7934;48.710;9.024;2022-12-29T07:50:43;2.25;;;1.88;;
15667;SDS011;7934;48.710;9.024;2022-12-29T07:53:11;2.75;;;1.83;;
15667;SDS011;7934;48.710;9.024;2022-12-29T07:55:40;3.57;;;1.60;;
15667;SDS011;7934;48.710;9.024;2022-12-29T07:58:07;2.55;;;1.48;;
15667;SDS011;7934;48.710;9.024;2022-12-29T08:00:36;1.50;;;1.40;;
15667;SDS011;7934;48.710;9.024;2022-12-29T08:03:04;1.92;;;1.50;;
15667;SDS011;7934;48.710;9.024;2022-12-29T08:05:31;4.00;;;1.55;;
15667;SDS011;7934;48.710;9.024;2022-12-29T08:07:59;1.63;;;1.52;;
15667;SDS011;7934;48.710;9.024;2022-12-29T08:10:26;2.08;;;1.60;;
15667;SDS011;7934;48.710;9.024;2022-12-29T08:12:53;2.15;;;1.80;;
15667;SDS011;7934;48.710;9.024;2022-12-29T08:15:21;3.15;;;1.90;;
15667;SDS011;7934;48.710;9.024;2022-12-29T08:17:49;2.83;;;1.80;;
15667;SDS011;7934;48.710;9.024;2022-12-29T08:20:17;2.43;;;1.63;;
15667;SDS011;7934;48.710;9.024;2022-12-29T08:22:44;1.63;;;1.52;;
15667;SDS011;7934;48.710;9.024;2022-12-29T08:25:11;2.15;;;1.67;;
15667;SDS011;7934;48.710;9.024;2022-12-29T08:27:38;3.67;;;1.52;;
15667;SDS011;7934;48.710;9.024;2022-12-29T08:30:06;2.40;;;1.50;;
15667;SDS011;7934;48.710;9.024;2022-12-29T08:32:33;2.70;;;1.60;;
15667;SDS011;7934;48.710;9.024;2022-12-29T08:35:02;1.50;;;1.50;;
15667;SDS011;7934;48.710;9.024;2022-12-29T08:37:29;1.70;;;1.55;;
15667;SDS011;7934;48.710;9.024;2022-12-29T08:39:56;2.50;;;1.70;;
15667;SDS011;7934;48.710;9.024;2022-12-29T08:42:25;3.97;;;1.83;;
15667;SDS011;7934;48.710;9.024;2022-12-29T08:44:56;2.10;;;1.98;;
15667;SDS011;7934;48.710;9.024;2022-12-29T08:47:23;5.05;;;1.60;;
15667;SDS011;7934;48.710;9.024;2022-12-29T08:49:50;1.65;;;1.55;;
15667;SDS011;7934;48.710;9.024;2022-12-29T08:52:19;1.80;;;1.70;;
15667;SDS011;7934;48.710;9.024;2022-12-29T08:54:46;1.95;;;1.70;;
15667;SDS011;7934;48.710;9.024;2022-12-29T08:57:13;2.28;;;1.80;;
15667;SDS011;7934;48.710;9.024;2022-12-29T08:59:40;3.65;;;2.20;;
15667;SDS011;7934;48.710;9.024;2022-12-29T09:02:09;2.42;;;1.92;;
15667;SDS011;7934;48.710;9.024;2022-12-29T09:04:37;2.67;;;1.83;;
15667;SDS011;7934;48.710;9.024;2022-12-29T09:07:04;1.95;;;1.80;;
15667;SDS011;7934;48.710;9.024;2022-12-29T09:09:33;1.70;;;1.60;;
15667;SDS011;7934;48.710;9.024;2022-12-29T09:12:00;2.15;;;2.00;;
15667;SDS011;7934;48.710;9.024;2022-12-29T09:14:27;1.98;;;1.77;;
15667;SDS011;7934;48.710;9.024;2022-12-29T09:16:54;2.42;;;2.22;;
15667;SDS011;7934;48.710;9.024;2022-12-29T09:19:39;3.65;;;1.80;;
15667;SDS011;7934;48.710;9.024;2022-12-29T09:22:06;1.90;;;1.80;;
15667;SDS011;7934;48.710;9.024;2022-12-29T09:24:35;1.80;;;1.70;;
15667;SDS011;7934;48.710;9.024;2022-12-29T09:27:02;2.33;;;1.70;;
15667;SDS011;7934;48.710;9.024;2022-12-29T09:29:29;2.85;;;2.00;;
15667;SDS011;7934;48.710;9.024;2022-12-29T09:31:57;2.78;;;1.60;;
15667;SDS011;7934;48.710;9.024;2022-12-29T09:34:24;2.15;;;1.77;;
15667;SDS011;7934;48.710;9.024;2022-12-29T09:36:54;1.75;;;1.40;;
15667;SDS011;7934;48.710;9.024;2022-12-29T09:39:22;3.63;;;1.45;;
15667;SDS011;7934;48.710;9.024;2022-12-29T09:41:56;2.70;;;1.55;;
15667;SDS011;7934;48.710;9.024;2022-12-29T09:44:28;1.48;;;1.35;;
15667;SDS011;7934;48.710;9.024;2022-12-29T09:46:57;4.32;;;1.55;;
15667;SDS011;7934;48.710;9.024;2022-12-29T09:49:26;1.63;;;1.50;;
15667;SDS011;7934;48.710;9.024;2022-12-29T09:51:56;1.77;;;1.67;;
15667;SDS011;7934;48.710;9.024;2022-12-29T09:54:32;3.40;;;1.80;;
15667;SDS011;7934;48.710;9.024;2022-12-29T09:57:11;1.63;;;1.50;;
15667;SDS011;7934;48.710;9.024;2022-12-29T09:59:40;1.95;;;1.75;;
15667;SDS011;7934;48.710;9.024;2022-12-29T10:02:12;2.40;;;1.40;;
15667;SDS011;7934;48.710;9.024;2022-12-29T10:04:43;3.78;;;1.80;;
15667;SDS011;7934;48.710;9.024;2022-12-29T10:07:11;1.42;;;1.30;;
15667;SDS011;7934;48.710;9.024;2022-12-29T10:09:42;2.65;;;1.98;;
15667;SDS011;7934;48.710;9.024;2022-12-29T10:12:15;2.60;;;1.45;;
15667;SDS011;7934;48.710;9.024;2022-12-29T10:14:51;2.67;;;1.85;;
15667;SDS011;7934;48.710;9.024;2022-12-29T10:17:27;4.13;;;1.65;;
15667;SDS011;7934;48.710;9.024;2022-12-29T10:20:03;3.03;;;1.40;;
15667;SDS011;7934;48.710;9.024;2022-12-29T10:22:40;3.08;;;1.60;;
15667;SDS011;7934;48.710;9.024;2022-12-29T10:25:12;4.03;;;2.10;;
15667;SDS011;7934;48.710;9.024;2022-12-29T10:27:43;3.47;;;1.80;;
15667;SDS011;7934;48.710;9.024;2022-12-29T10:30:11;1.77;;;1.50;;
15667;SDS011;7934;48.710;9.024;2022-12-29T10:32:39;2.83;;;1.85;;
15667;SDS011;7934;48.710;9.024;2022-12-29T10:35:10;5.32;;;1.60;;
15667;SDS011;7934;48.710;9.024;2022-12-29T10:37:39;3.95;;;1.88;;
15667;SDS011;7934;48.710;9.024;2022-12-29T10:40:14;3.58;;;1.80;;
15667;SDS011;7934;48.710;9.024;2022-12-29T10:42:45;2.90;;;1.80;;
15667;SDS011;7934;48.710;9.024;2022-12-29T10:45:13;3.97;;;1.70;;
15667;SDS011;7934;48.710;9.024;2022-12-29T10:47:44;2.22;;;1.60;;
15667;SDS011;7934;48.710;9.024;2022-12-29T10:50:14;2.78;;;1.77;;
15667;SDS011;7934;48.710;9.024;2022-12-29T10:52:41;3.40;;;1.73;;
15667;SDS011;7934;48.710;9.024;2022-12-29T10:55:11;3.38;;;1.70;;
15667;SDS011;7934;48.710;9.024;2022-12-29T10:57:40;2.55;;;1.58;;
15667;SDS011;7934;48.710;9.024;2022-12-29T11:00:13;4.20;;;1.95;;
15667;SDS011;7934;48.710;9.024;2022-12-29T11:05:27;4.80;;;1.83;;
15667;SDS011;7934;48.710;9.024;2022-12-29T11:07:57;8.40;;;1.90;;
15667;SDS011;7934;48.710;9.024;2022-12-29T11:10:29;4.15;;;1.80;;
15667;SDS011;7934;48.710;9.024;2022-12-29T11:12:57;2.80;;;1.95;;
15667;SDS011;7934;48.710;9.024;2022-12-29T11:15:26;1.92;;;1.65;;
15667;SDS011;7934;48.710;9.024;2022-12-29T11:17:53;2.78;;;1.80;;
15667;SDS011;7934;48.710;9.024;2022-12-29T11:20:28;1.60;;;1.50;;
15667;SDS011;7934;48.710;9.024;2022-12-29T11:22:55;3.30;;;1.83;;
15667;SDS011;7934;48.710;9.024;2022-12-29T11:25:22;2.45;;;2.03;;
15667;SDS011;7934;48.710;9.024;2022-12-29T11:27:56;3.13;;;1.73;;
15667;SDS011;7934;48.710;9.024;2022-12-29T11:30:26;2.97;;;2.25;;
15667;SDS011;7934;48.710;9.024;2022-12-29T11:32:55;2.97;;;2.30;;
15667;SDS011;7934;48.710;9.024;2022-12-29T11:35:42;3.55;;;1.70;;
15667;SDS011;7934;48.710;9.024;2022-12-29T11:38:16;5.13;;;2.00;;
15667;SDS011;7934;48.710;9.024;2022-12-29T11:40:45;2.33;;;1.65;;
15667;SDS011;7934;48.710;9.024;2022-12-29T11:43:16;2.38;;;1.73;;
15667;SDS011;7934;48.710;9.024;2022-12-29T11:45:47;2.00;;;1.80;;
15667;SDS011;7934;48.710;9.024;2022-12-29T11:48:16;2.38;;;1.98;;
15667;SDS011;7934;48.710;9.024;2022-12-29T11:50:48;2.63;;;1.60;;
15667;SDS011;7934;48.710;9.024;2022-12-29T11:53:18;3.10;;;1.98;;
15667;SDS011;7934;48.710;9.024;2022-12-29T11:55:50;2.97;;;1.90;;
15667;SDS011;7934;48.710;9.024;2022-12-29T11:58:18;3.72;;;2.30;;
15667;SDS011;7934;48.710;9.024;2022-12-29T12:00:45;3.33;;;1.75;;
15667;SDS011;7934;48.710;9.024;2022-12-29T12:03:17;2.10;;;1.92;;
15667;SDS011;7934;48.710;9.024;2022-12-29T12:05:46;1.60;;;1.50;;
15667;SDS011;7934;48.710;9.024;2022-12-29T12:08:21;2.20;;;1.77;;
15667;SDS011;7934;48.710;9.024;2022-12-29T12:10:50;2.57;;;1.73;;
15667;SDS011;7934;48.710;9.024;2022-12-29T12:13:22;2.00;;;1.70;;
15667;SDS011;7934;48.710;9.024;2022-12-29T12:15:50;2.08;;;1.60;;
15667;SDS011;7934;48.710;9.024;2022-12-29T12:18:24;1.70;;;1.52;;
15667;SDS011;7934;48.710;9.024;2022-12-29T12:20:56;2.13;;;1.95;;
15667;SDS011;7934;48.710;9.024;2022-12-29T12:23:28;3.08;;;1.90;;
15667;SDS011;7934;48.710;9.024;2022-12-29T12:25:59;2.15;;;1.65;;
15667;SDS011;7934;48.710;9.024;2022-12-29T12:28:33;2.80;;;1.70;;
15667;SDS011;7934;48.710;9.024;2022-12-29T12:31:02;2.83;;;2.25;;
15667;SDS011;7934;48.710;9.024;2022-12-29T12:33:35;1.80;;;1.65;;
15667;SDS011;7934;48.710;9.024;2022-12-29T12:36:09;3.03;;;1.98;;
15667;SDS011;7934;48.710;9.024;2022-12-29T12:38:42;3.30;;;2.10;;
15667;SDS011;7934;48.710;9.024;2022-12-29T12:41:12;1.85;;;1.75;;
15667;SDS011;7934;48.710;9.024;2022-12-29T12:43:41;2.45;;;2.25;;
15667;SDS011;7934;48.710;9.024;2022-12-29T12:46:14;3.47;;;2.08;;
15667;SDS011;7934;48.710;9.024;2022-12-29T12:48:50;3.33;;;2.10;;
15667;SDS011;7934;48.710;9.024;2022-12-29T12:51:24;2.58;;;2.00;;
15667;SDS011;7934;48.710;9.024;2022-12-29T12:53:59;2.45;;;1.80;;
15667;SDS011;7934;48.710;9.024;2022-12-29T12:59:17;3.63;;;1.77;;
15667;SDS011;7934;48.710;9.024;2022-12-29T13:01:50;2.88;;;1.98;;
15667;SDS011;7934;48.710;9.024;2022-12-29T13:04:35;2.10;;;1.90;;
15667;SDS011;7934;48.710;9.024;2022-12-29T13:07:07;2.35;;;1.98;;
15667;SDS011;7934;48.710;9.024;2022-12-29T13:09:43;2.58;;;1.77;;
15667;SDS011;7934;48.710;9.024;2022-12-29T13:12:15;1.73;;;1.63;;
15667;SDS011;7934;48.710;9.024;2022-12-29T13:14:52;1.98;;;1.83;;
15667;SDS011;7934;48.710;9.024;2022-12-29T13:17:22;1.88;;;1.63;;
15667;SDS011;7934;48.710;9.024;2022-12-29T13:19:54;2.38;;;1.80;;
15667;SDS011;7934;48.710;9.024;2022-12-29T13:22:25;1.88;;;1.60;;
15667;SDS011;7934;48.710;9.024;2022-12-29T13:24:56;3.13;;;1.67;;
15667;SDS011;7934;48.710;9.024;2022-12-29T13:27:28;1.70;;;1.60;;
15667;SDS011;7934;48.710;9.024;2022-12-29T13:30:00;3.03;;;1.85;;
15667;SDS011;7934;48.710;9.024;2022-12-29T13:32:32;2.42;;;1.85;;
15667;SDS011;7934;48.710;9.024;2022-12-29T13:35:07;2.22;;;2.03;;
15667;SDS011;7934;48.710;9.024;2022-12-29T13:37:42;2.85;;;2.05;;
15667;SDS011;7934;48.710;9.024;2022-12-29T13:40:13;2.92;;;1.83;;
15667;SDS011;7934;48.710;9.024;2022-12-29T13:42:42;2.08;;;1.90;;
15667;SDS011;7934;48.710;9.024;2022-12-29T13:45:10;1.80;;;1.70;;
15667;SDS011;7934;48.710;9.024;2022-12-29T13:47:40;2.50;;;1.60;;
15667;SDS011;7934;48.710;9.024;2022-12-29T13:50:13;1.70;;;1.55;;
15667;SDS011;7934;48.710;9.024;2022-12-29T13:52:43;1.70;;;1.60;;
15667;SDS011;7934;48.710;9.024;2022-12-29T13:55:18;3.00;;;1.60;;
15667;SDS011;7934;48.710;9.024;2022-12-29T13:57:48;1.90;;;1.80;;
15667;SDS011;7934;48.710;9.024;2022-12-29T14:00:16;2.78;;;1.88;;
15667;SDS011;7934;48.710;9.024;2022-12-29T14:02:47;2.53;;;1.95;;
15667;SDS011;7934;48.710;9.024;2022-12-29T14:05:28;1.70;;;1.60;;
15667;SDS011;7934;48.710;9.024;2022-12-29T14:07:57;2.25;;;1.90;;
15667;SDS011;7934;48.710;9.024;2022-12-29T14:10:29;1.75;;;1.65;;
15667;SDS011;7934;48.710;9.024;2022-12-29T14:13:03;3.40;;;1.98;;
15667;SDS011;7934;48.710;9.024;2022-12-29T14:15:31;2.58;;;2.10;;
15667;SDS011;7934;48.710;9.024;2022-12-29T14:18:10;2.22;;;2.10;;
15667;SDS011;7934;48.710;9.024;2022-12-29T14:20:40;4.13;;;2.03;;
15667;SDS011;7934;48.710;9.024;2022-12-29T14:23:24;2.53;;;2.37;;
15667;SDS011;7934;48.710;9.024;2022-12-29T14:25:53;3.17;;;2.40;;
15667;SDS011;7934;48.710;9.024;2022-12-29T14:28:22;2.47;;;2.28;;
15667;SDS011;7934;48.710;9.024;2022-12-29T14:30:50;3.60;;;2.03;;
15667;SDS011;7934;48.710;9.024;2022-12-29T14:33:17;2.83;;;2.15;;
15667;SDS011;7934;48.710;9.024;2022-12-29T14:35:50;2.38;;;2.03;;
15667;SDS011;7934;48.710;9.024;2022-12-29T14:38:18;2.60;;;2.10;;
15667;SDS011;7934;48.710;9.024;2022-12-29T14:40:46;2.10;;;2.00;;
15667;SDS011;7934;48.710;9.024;2022-12-29T14:43:18;2.97;;;2.30;;
15667;SDS011;7934;48.710;9.024;2022-12-29T14:45:48;3.83;;;2.00;;
15667;SDS011;7934;48.710;9.024;2022-12-29T14:48:25;3.97;;;2.33;;
15667;SDS011;7934;48.710;9.024;2022-12-29T14:50:55;3.70;;;2.90;;
15667;SDS011;7934;48.710;9.024;2022-12-29T14:53:42;4.43;;;3.75;;
15667;SDS011;7934;48.710;9.024;2022-12-29T14:56:10;3.83;;;2.30;;
15667;SDS011;7934;48.710;9.024;2022-12-29T14:58:38;2.38;;;1.95;;
15667;SDS011;7934;48.710;9.024;2022-12-29T15:01:15;3.10;;;2.30;;
15667;SDS011;7934;48.710;9.024;2022-12-29T15:03:44;2.40;;;2.20;;
15667;SDS011;7934;48.710;9.024;2022-12-29T15:06:13;2.60;;;2.30;;
15667;SDS011;7934;48.710;9.024;2022-12-29T15:08:46;3.78;;;2.30;;
15667;SDS011;7934;48.710;9.024;2022-12-29T15:11:17;4.93;;;2.30;;
15667;SDS011;7934;48.710;9.024;2022-12-29T15:13:44;2.15;;;1.88;;
15667;SDS011;7934;48.710;9.024;2022-12-29T15:16:23;2.10;;;2.00;;
15667;SDS011;7934;48.710;9.024;2022-12-29T15:18:51;2.30;;;2.10;;
15667;SDS011;7934;48.710;9.024;2022-12-29T15:21:20;1.95;;;1.83;;
15667;SDS011;7934;48.710;9.024;2022-12-29T15:23:50;2.95;;;1.95;;
15667;SDS011;7934;48.710;9.024;2022-12-29T15:26:17;2.45;;;1.98;;
15667;SDS011;7934;48.710;9.024;2022-12-29T15:28:48;3.33;;;2.30;;
15667;SDS011;7934;48.710;9.024;2022-12-29T15:31:16;2.58;;;2.30;;
15667;SDS011;7934;48.710;9.024;2022-12-29T15:33:45;4.72;;;2.40;;
15667;SDS011;7934;48.710;9.024;2022-12-29T15:36:13;2.63;;;2.30;;
15667;SDS011;7934;48.710;9.024;2022-12-29T15:38:42;3.53;;;2.38;;
15667;SDS011;7934;48.710;9.024;2022-12-29T15:41:17;2.55;;;2.08;;